Athens Eleftherios, Greece

10:14 PM EEST on September 22, 2014 (GMT +0300)
Koropi Attikis, Powered by xalazi.gr | Change Station
CLOSE
Current Station
Personal Weather Station
Location: Κορωπί, Αττική
Elevation: 420 ft
Nearby Weather Stations

Elev 420 ft 37.90 °N, 23.88 °E | Updated 6 seconds ago

Partly Cloudy
Partly Cloudy
81.7 °F
Feels Like 83 °F
N
4.9
Wind Variable Wind from WSW
Gusts 7.2 mph

Today
High -- | Low -- °F
--% Chance of Precip.
Yesterday
High -- | Low -- °F
Precip. -- in
7:11 AM 7:21 PM
Waning Crescent, 2% visible
Pressure 29.80 in
Visibility 6.2 miles
Clouds Few 3000 ft
Heat Index 83 °F
Dew Point 63 °F
Humidity 53%
Rainfall 0.00 in
Snow Depth Not available.
UV 0.0 out of 12
Pollen Not available.
Air Quality Not available.
Flu Activity Not available.
METAR LGAV 221850Z 26015KT 9999 FEW030 29/14 Q1009 NOSIG

More Conditions Fewer Conditions

Pressure 29.80 in
Visibility 6.2 miles
Clouds Few 3000 ft
Heat Index 83 °F
Dew Point 63 °F
Humidity 53%
Rainfall 0.00 in
Snow Depth Not available.
UV 0.0 out of 12
Pollen Not available.
Air Quality Not available.
Flu Activity Not available.
METAR LGAV 221850Z 26015KT 9999 FEW030 29/14 Q1009 NOSIG

More Conditions Fewer Conditions

10-Day Weather Forecast

Almanac

Astronomy

Sep. 22, 2014 Rise Set
Actual Time 7:11 AM EEST 7:21 PM EEST
Civil Twilight 6:45 AM EEST 7:47 PM EEST
Nautical Twilight 6:14 AM EEST 8:18 PM EEST
Astronomical Twilight 5:43 AM EEST 8:49 PM EEST
Moon 5:24 AM EEST 6:18 PM EEST
Length of Visible Light 13h 02m
Length of Day
12h 09m
Tomorrow will be 2m 26s shorter.
Waning Crescent, 2% of the Moon is Illuminated
Today
Waning Crescent
Sep 24
New
Oct 1
First Quarter
Oct 8
Full
Oct 15
Last Quarter

Today's Extremes

Country Highs Country Lows

Community

WunderPhotos

Upload Photos

1,755,514 photos uploaded!

WunderBlogs® & News

Nearby

Snow Depth

Not available.

Earthquake Activity

City Distance Mag. Time & Date
No recent earthquake activity has been reported nearby.
Minimum magnitude displayed is 2.5.

Coastal Water Temperatures

Place Temperature
No Stations Reporting

Nearby Weather Stations